CheckWX is a tool to help pilots better visualize weather data.  It is not intended as a substitute for an official pre-flight weather briefing.

09:35:51 UTC

TDPD METAR
Melville Hall Airport
Marigot, Dominica
Current

10 hours ago

TDPD 210000Z 19003KT 9999 SCT017 27/25 Q1013
Observed
Sep-21 @ 00:00 UTC
Wind
  • 190° at 3 KTS
Visibility
10,000+ meters
Flight Rules
VFR
Cloud Levels
  • Scattered at 1,700' AGL
Temperature
27°C / 81°F
Dewpoint
25°C / 77°F
Heat Index
31°C / 88°F
Humidity
89%
Altimeter
29.91" Hg
Pressure
1012.92 hPa
Previous

11 hours ago

TDPD 202300Z 29003KT 9999 FEW017 26/25 Q1012
Observed
Sep-20 @ 23:00 UTC
Wind
  • 290° at 3 KTS
Visibility
10,000+ meters
Flight Rules
VFR
Cloud Levels
  • Few at 1,700' AGL
Temperature
26°C / 79°F
Dewpoint
25°C / 77°F
Humidity
94%
Altimeter
29.88" Hg
Pressure
1011.92 hPa
Previous

12 hours ago

TDPD 202200Z 16001KT 9999 FEW017 28/25 Q1012
Observed
Sep-20 @ 22:00 UTC
Wind
  • 160° at 1 KTS
Visibility
10,000+ meters
Flight Rules
VFR
Cloud Levels
  • Few at 1,700' AGL
Temperature
28°C / 82°F
Dewpoint
25°C / 77°F
Heat Index
32°C / 90°F
Humidity
84%
Altimeter
29.88" Hg
Pressure
1011.92 hPa